Terminal Aerodrome Forecast
Issued by NWS

Home | Current Version | Previous Version | Text Only | Print | Product List | Glossary On
Versions: 1 2 3 4 5 6 7 8 9 10 11 12 13 14 15 16 17 18 19 20 21 22 23 24 25 26 27 28 29
000
FTUS41 KOKX 251736
TAFHPN
TAF
KHPN 251736Z 2518/2618 06014G20KT 6SM -RA BR OVC008
     FM252000 07014G23KT 3SM -RA BR OVC006
      TEMPO 2522/2524 1SM RA OVC005
     FM260300 07013G22KT 1SM -RA BR OVC004
     FM260500 06011KT 3/4SM -RA BR OVC003
     FM261200 05008KT 1SM -RA BR OVC003
     FM261600 05006KT 3SM BR OVC006
      AMD NOT SKED=

USA.gov is the U.S. government's official web portal to all federal, state and local government web resources and services.